Flight Track Log - Related Links

Times and Time Zones

All times are in EDT time to prevent confusion due to time zone crossing. See the N2801U flight status page for this flight to view local times or setup timezone preferences in your user account.

Time Position Orientation Groundspeed Altitude Reporting Facility
EDT Latitude Longitude Course Direction KTS MPH feet Rate Location/Type
Sun 01:47:49 PM 29.6267 -95.7011 292° West 101 116 1,200  Level Houston Center
Sun 01:48:06 PM 29.6278 -95.7081 280° West 101 116 1,200 98 Level Houston Center
Sun 01:48:50 PM 29.6353 -95.7289 293° West 96 110 1,300 194 Climbing Houston Center
Sun 01:49:08 PM 29.6392 -95.7347 307° West 95 109 1,400 295 Climbing Houston Center
Sun 01:49:51 PM 29.6544 -95.7531 314° West 97 112 1,600 197 Climbing Houston Center
Sun 01:50:09 PM 29.6567 -95.7575 300° West 94 108 1,600 295 Level Houston Center
Sun 01:50:52 PM 29.6669 -95.7781 300° West 92 106 1,900 290 Climbing Houston Center
Sun 01:51:11 PM 29.6700 -95.7825 308° West 92 106 1,900 290 Level Houston Center
Sun 01:51:54 PM 29.6819 -95.8028 304° West 92 106 2,200 295 Climbing Houston Center
Sun 01:52:12 PM 29.6828 -95.8075 281° West 91 105 2,200 295 Level Houston Center
Sun 01:52:55 PM 29.6989 -95.8297 310° West 98 113 2,500 290 Climbing Houston Center
Sun 01:53:00 PM 29.7186 -95.9345 292° West  Level Estimated
Sun 01:53:14 PM 29.6992 -95.8325 277° West 94 108 2,500  Level Houston Center
Sun 01:53:56 PM 29.7117 -95.8547 303° West 94 108 2,800 290 Climbing Houston Center
Sun 01:54:16 PM 29.7150 -95.8639 293° West 95 109 2,800 197 Level Houston Center
Sun 01:54:57 PM 29.7225 -95.8822 295° West 92 106 3,000 197 Climbing Houston Center
Sun 01:55:17 PM 29.7247 -95.8919 285° West 95 109 3,000 197 Level Houston Center
Sun 01:55:58 PM 29.7314 -95.9125 290° West 96 110 3,200 290 Climbing Houston Center
Sun 01:56:19 PM 29.7353 -95.9194 303° West 94 108 3,300 290 Climbing Houston Center
Sun 01:57:00 PM 29.7422 -95.9403 291° West 91 105 3,500 194 Climbing Houston Center
Sun 01:57:21 PM 29.7442 -95.9467 289° West 92 106 3,500 197 Level Houston Center
Sun 01:58:01 PM 29.7531 -95.9678 296° West 97 112 3,700 197 Climbing Houston Center
Sun 01:58:22 PM 29.7558 -95.9744 296° West 93 107 3,700 98 Level Houston Center
Sun 01:59:02 PM 29.7658 -95.9953 299° West 100 115 3,800 194 Climbing Houston Center
Sun 01:59:24 PM 29.7675 -96.0022 285° West 97 112 3,900 197 Climbing Houston Center
Sun 02:00:03 PM 29.7747 -96.0256 290° West 97 112 4,000  Climbing Houston Center
Sun 02:00:26 PM 29.7781 -96.0358 290° West 98 113 3,900 -194 Descending Houston Center
Sun 02:01:05 PM 29.7861 -96.0603 291° West 116 133 3,800 -197 Descending Houston Center
Sun 02:01:27 PM 29.7897 -96.0692 295° West 107 123 3,700 -197 Descending Houston Center
Sun 02:02:06 PM 29.7972 -96.0928 290° West 115 132 3,600 -194 Descending Houston Center
Sun 02:02:29 PM 29.8014 -96.1033 294° West 113 130 3,500 -98 Descending Houston Center
Sun 02:03:07 PM 29.8108 -96.1272 295° West 111 128 3,500  Level Houston Center
Sun 02:03:31 PM 29.8133 -96.1369 287° West 114 131 3,500 109 Level Houston Center
Sun 02:04:02 PM 29.8217 -96.1572 295° West 108 124 3,600 98 Climbing Houston Center
Sun 02:04:32 PM 29.8250 -96.1678 290° West 106 122 3,600  Level Houston Center
Sun 02:05:09 PM 29.8353 -96.1919 296° West 107 123 3,600 97 Level Houston Center
Sun 02:05:34 PM 29.8364 -96.1994 280° West 106 122 3,700 -97 Climbing Houston Center
Sun 02:06:11 PM 29.8442 -96.2244 290° West 111 128 3,500 -197 Descending Houston Center
Sun 02:06:35 PM 29.8481 -96.2406 286° West 112 129 3,500  Level Houston Center
Sun 02:07:12 PM 29.8558 -96.2617 293° West 110 127 3,500  Level Houston Center
Sun 02:07:37 PM 29.8597 -96.2722 293° West 108 124 3,500  Level Houston Center
Sun 02:08:13 PM 29.8650 -96.2944 285° West 110 127 3,500 97 Level Houston Center
Sun 02:08:39 PM 29.8697 -96.3053 297° West 109 125 3,600 69 Climbing Houston Center
Sun 02:09:40 PM 29.8806 -96.3389 290° West 110 127 3,600  Level Houston Center
Sun 02:10:42 PM 29.8914 -96.3706 292° West 107 123 3,600 -49 Level Houston Center
Sun 02:11:43 PM 29.8992 -96.4039 285° West 107 123 3,500 -49 Descending Houston Center
Sun 02:12:45 PM 29.9103 -96.4369 291° West 110 127 3,500 -62 Level Houston Center
Sun 02:13:20 PM 29.9189 -96.4619 292° West 108 124 3,400  Descending Houston Center
Sun 02:13:47 PM 29.9217 -96.4764 283° West 109 125 3,500  Climbing Houston Center
Sun 02:14:21 PM 29.9258 -96.4972 283° West 106 122 3,400  Descending Houston Center
Sun 02:14:48 PM 29.9292 -96.5089 288° West 107 123 3,500 90 Climbing Houston Center
Sun 02:15:28 PM 29.9350 -96.5322 286° West 107 123 3,500  Level Houston Center
Sun 02:15:50 PM 29.9394 -96.5422 297° West 110 127 3,500 -107 Level Houston Center
Sun 02:16:24 PM 29.9458 -96.5625 290° West 108 124 3,400  Descending Houston Center
Sun 02:16:52 PM 29.9489 -96.5742 287° West 106 122 3,500 67 Climbing Houston Center
Sun 02:17:53 PM 29.9611 -96.6067 293° West 109 125 3,500 49 Level Houston Center
Sun 02:18:55 PM 29.9717 -96.6372 292° West 105 121 3,600 49 Climbing Houston Center
Sun 02:19:56 PM 29.9822 -96.6689 291° West 105 121 3,600  Level Houston Center
Sun 02:20:58 PM 29.9961 -96.7075 293° West 109 125 3,600 -48 Level Houston Center
Sun 02:22:00 PM 30.0064 -96.7414 289° West 112 129 3,500 -49 Descending Houston Center
Sun 02:23:01 PM 30.0169 -96.7736 291° West 110 127 3,500  Level Houston Center
Sun 02:24:03 PM 30.0258 -96.8056 288° West 106 122 3,500 48 Level Houston Center
Sun 02:25:05 PM 30.0397 -96.8367 297° West 109 125 3,600 49 Climbing Houston Center
Sun 02:26:06 PM 30.0506 -96.8683 292° West 107 123 3,600  Level Houston Center
Sun 02:27:08 PM 30.0622 -96.9008 293° West 108 124 3,600  Level Houston Center
Sun 02:28:10 PM 30.0744 -96.9414 289° West 111 128 3,600 -49 Level Houston Center
Sun 02:29:11 PM 30.0842 -96.9733 289° West 108 124 3,500  Descending Houston Center
Sun 02:30:13 PM 30.0944 -97.0053 290° West 107 123 3,600  Climbing Houston Center
Sun 02:31:15 PM 30.1042 -97.0367 290° West 106 122 3,500 -49 Descending Houston Center
Sun 02:32:16 PM 30.1169 -97.0703 294° West 110 127 3,500  Level Houston Center
Sun 02:33:18 PM 30.1275 -97.1033 290° West 110 127 3,500 48 Level Houston Center
Sun 02:34:20 PM 30.1392 -97.1367 292° West 110 127 3,600 49 Climbing Houston Center
Sun 02:35:21 PM 30.1522 -97.1747 292° West 109 125 3,600  Level Houston Center
Sun 02:36:23 PM 30.1611 -97.2067 288° West 105 121 3,600 -48 Level Houston Center
Sun 02:37:25 PM 30.1711 -97.2397 289° West 107 123 3,500  Descending Houston Center
Sun 02:38:26 PM 30.1814 -97.2714 291° West 105 121 3,600  Climbing Houston Center
Sun 02:39:28 PM 30.1922 -97.3039 291° West 107 123 3,500 -48 Descending Houston Center
Sun 02:40:30 PM 30.2028 -97.3361 291° West 106 122 3,500 -48 Level Houston Center
Sun 02:41:32 PM 30.2122 -97.3686 289° West 106 122 3,400 -49 Descending Houston Center
Sun 02:42:33 PM 30.2222 -97.4019 289° West 107 123 3,400 49 Level Houston Center
Sun 02:43:35 PM 30.2328 -97.4333 291° West 105 121 3,500 48 Climbing Houston Center
Sun 02:44:37 PM 30.2431 -97.4653 290° West 104 120 3,500  Level Houston Center
Sun 02:45:38 PM 30.2561 -97.5025 292° West 107 123 3,500  Level Houston Center
Sun 02:46:40 PM 30.2678 -97.5342 293° West 106 122 3,500  Level Houston Center
Sun 02:47:42 PM 30.2794 -97.5678 292° West 109 125 3,500  Level Houston Center
Sun 02:48:44 PM 30.2881 -97.5994 287° West 105 121 3,500 -49 Level Houston Center
Sun 02:49:45 PM 30.2969 -97.6311 288° West 103 119 3,400  Descending Houston Center
Sun 02:50:47 PM 30.3056 -97.6614 288° West 102 117 3,500 48 Climbing Houston Center
Sun 02:51:49 PM 30.3164 -97.6925 292° West 100 115 3,500  Level Houston Center
Sun 02:52:50 PM 30.3269 -97.7253 290° West 105 121 3,500 49 Level Houston Center
Sun 02:53:52 PM 30.3367 -97.7572 289° West 105 121 3,600 48 Climbing Houston Center
Sun 02:54:54 PM 30.3472 -97.7894 291° West 106 122 3,600 -48 Level Houston Center
Sun 02:55:56 PM 30.3564 -97.8217 288° West 104 120 3,500  Descending Houston Center
Sun 02:56:57 PM 30.3683 -97.8606 290° West 107 123 3,600 49 Climbing Houston Center
Sun 02:57:59 PM 30.3803 -97.8922 294° West 107 123 3,600 -97 Level Houston Center
Sun 02:59:01 PM 30.3906 -97.9258 290° West 108 124 3,400 -48 Descending Houston Center
Sun 03:00:03 PM 30.4008 -97.9581 290° West 108 124 3,500 49 Climbing Houston Center
Sun 03:01:04 PM 30.4094 -97.9919 286° West 108 124 3,500  Level Houston Center

Login

Don't have an account? Register now (free) for customized features, flight alerts, and more!